sensor_id;sensor_type;location;lat;lon;timestamp;pressure;altitude;pressure_sealevel;temperature;humidity
58843;BME280;44614;54.356;10.100;2023-02-13T00:00:59;103488.78;;;5.32;100.00
58843;BME280;44614;54.356;10.100;2023-02-13T00:03:25;103501.91;;;5.38;100.00
58843;BME280;44614;54.356;10.100;2023-02-13T00:05:50;103491.97;;;5.37;100.00
58843;BME280;44614;54.356;10.100;2023-02-13T00:08:15;103480.84;;;5.29;100.00
58843;BME280;44614;54.356;10.100;2023-02-13T00:10:41;103489.63;;;5.33;100.00
58843;BME280;44614;54.356;10.100;2023-02-13T00:13:06;103489.53;;;5.34;100.00
58843;BME280;44614;54.356;10.100;2023-02-13T00:15:31;103489.41;;;5.36;100.00
58843;BME280;44614;54.356;10.100;2023-02-13T00:17:57;103497.56;;;5.36;100.00
58843;BME280;44614;54.356;10.100;2023-02-13T00:20:22;103460.91;;;5.18;100.00
58843;BME280;44614;54.356;10.100;2023-02-13T00:22:47;103489.41;;;5.36;100.00
58843;BME280;44614;54.356;10.100;2023-02-13T00:25:13;103489.78;;;5.31;100.00
58843;BME280;44614;54.356;10.100;2023-02-13T00:27:38;103485.19;;;5.32;100.00
58843;BME280;44614;54.356;10.100;2023-02-13T00:30:05;103490.41;;;5.35;100.00
58843;BME280;44614;54.356;10.100;2023-02-13T00:32:31;103444.81;;;5.14;100.00
58843;BME280;44614;54.356;10.100;2023-02-13T00:34:56;103450.16;;;5.16;100.00
58843;BME280;44614;54.356;10.100;2023-02-13T00:37:23;103465.25;;;5.20;100.00
58843;BME280;44614;54.356;10.100;2023-02-13T00:39:48;103463.25;;;5.22;100.00
58843;BME280;44614;54.356;10.100;2023-02-13T00:42:13;103467.13;;;5.31;100.00
58843;BME280;44614;54.356;10.100;2023-02-13T00:44:38;103481.72;;;5.30;100.00
58843;BME280;44614;54.356;10.100;2023-02-13T00:47:04;103459.19;;;5.17;100.00
58843;BME280;44614;54.356;10.100;2023-02-13T00:49:29;103475.91;;;5.23;100.00
58843;BME280;44614;54.356;10.100;2023-02-13T00:51:54;103460.66;;;5.21;100.00
58843;BME280;44614;54.356;10.100;2023-02-13T00:54:20;103433.41;;;4.98;100.00
58843;BME280;44614;54.356;10.100;2023-02-13T00:56:45;103491.97;;;5.26;100.00
58843;BME280;44614;54.356;10.100;2023-02-13T00:59:10;103478.50;;;5.25;100.00
58843;BME280;44614;54.356;10.100;2023-02-13T01:01:36;103478.13;;;5.18;100.00
58843;BME280;44614;54.356;10.100;2023-02-13T01:04:01;103480.50;;;5.23;100.00
58843;BME280;44614;54.356;10.100;2023-02-13T01:06:26;103470.09;;;5.17;100.00
58843;BME280;44614;54.356;10.100;2023-02-13T01:08:52;103472.56;;;5.20;100.00
58843;BME280;44614;54.356;10.100;2023-02-13T01:11:17;103298.25;;;4.19;100.00
58843;BME280;44614;54.356;10.100;2023-02-13T01:13:44;103425.00;;;4.90;100.00
58843;BME280;44614;54.356;10.100;2023-02-13T01:16:09;103463.53;;;5.08;100.00
58843;BME280;44614;54.356;10.100;2023-02-13T01:18:34;103458.69;;;5.11;100.00
58843;BME280;44614;54.356;10.100;2023-02-13T01:21:03;103476.25;;;5.19;100.00
58843;BME280;44614;54.356;10.100;2023-02-13T01:23:30;103477.00;;;5.21;100.00
58843;BME280;44614;54.356;10.100;2023-02-13T01:25:56;103458.69;;;5.11;100.00
58843;BME280;44614;54.356;10.100;2023-02-13T01:28:21;103462.28;;;5.12;100.00
58843;BME280;44614;54.356;10.100;2023-02-13T01:30:52;103462.91;;;5.16;100.00
58843;BME280;44614;54.356;10.100;2023-02-13T01:33:18;103470.81;;;5.19;100.00
58843;BME280;44614;54.356;10.100;2023-02-13T01:35:43;103471.69;;;5.19;100.00
58843;BME280;44614;54.356;10.100;2023-02-13T01:38:08;103468.97;;;5.19;100.00
58843;BME280;44614;54.356;10.100;2023-02-13T01:40:34;103463.63;;;5.18;100.00
58843;BME280;44614;54.356;10.100;2023-02-13T01:42:59;103468.09;;;5.19;100.00
58843;BME280;44614;54.356;10.100;2023-02-13T01:45:29;103470.09;;;5.17;100.00
58843;BME280;44614;54.356;10.100;2023-02-13T01:48:06;103387.09;;;4.64;100.00
58843;BME280;44614;54.356;10.100;2023-02-13T01:50:38;103467.22;;;5.18;100.00
58843;BME280;44614;54.356;10.100;2023-02-13T01:53:13;103461.16;;;5.14;100.00
58843;BME280;44614;54.356;10.100;2023-02-13T01:56:10;103457.81;;;5.11;100.00
58843;BME280;44614;54.356;10.100;2023-02-13T01:58:35;103462.00;;;5.15;100.00
58843;BME280;44614;54.356;10.100;2023-02-13T02:01:02;103471.31;;;5.12;100.00
58843;BME280;44614;54.356;10.100;2023-02-13T02:03:59;103463.16;;;5.12;100.00
58843;BME280;44614;54.356;10.100;2023-02-13T02:06:33;103461.41;;;5.11;100.00
58843;BME280;44614;54.356;10.100;2023-02-13T02:09:03;103462.28;;;5.12;100.00
58843;BME280;44614;54.356;10.100;2023-02-13T02:11:58;103464.25;;;5.10;100.00
58843;BME280;44614;54.356;10.100;2023-02-13T02:14:25;103450.78;;;5.08;100.00
58843;BME280;44614;54.356;10.100;2023-02-13T02:16:51;103447.28;;;4.95;100.00
58843;BME280;44614;54.356;10.100;2023-02-13T02:25:31;103452.72;;;5.06;100.00
58843;BME280;44614;54.356;10.100;2023-02-13T02:28:03;103451.72;;;5.07;100.00
58843;BME280;44614;54.356;10.100;2023-02-13T02:33:39;103452.63;;;5.08;100.00
58843;BME280;44614;54.356;10.100;2023-02-13T02:36:18;103451.88;;;5.06;100.00
58843;BME280;44614;54.356;10.100;2023-02-13T02:47:37;103452.72;;;5.06;100.00
58843;BME280;44614;54.356;10.100;2023-02-13T02:50:44;103441.47;;;5.00;100.00
58843;BME280;44614;54.356;10.100;2023-02-13T02:56:25;103446.03;;;4.99;100.00
58843;BME280;44614;54.356;10.100;2023-02-13T02:58:55;103451.47;;;4.99;100.00
58843;BME280;44614;54.356;10.100;2023-02-13T03:01:41;103449.63;;;5.00;100.00
58843;BME280;44614;54.356;10.100;2023-02-13T03:04:45;103437.63;;;4.91;100.00
58843;BME280;44614;54.356;10.100;2023-02-13T03:07:31;103444.19;;;5.00;100.00
58843;BME280;44614;54.356;10.100;2023-02-13T03:10:00;103402.72;;;4.74;100.00
58843;BME280;44614;54.356;10.100;2023-02-13T03:12:53;103428.44;;;4.92;100.00
58843;BME280;44614;54.356;10.100;2023-02-13T03:15:41;103441.47;;;5.00;100.00
58843;BME280;44614;54.356;10.100;2023-02-13T03:18:29;103429.84;;;4.98;100.00
58843;BME280;44614;54.356;10.100;2023-02-13T03:21:28;103445.06;;;5.00;100.00
58843;BME280;44614;54.356;10.100;2023-02-13T03:24:38;103426.72;;;4.91;100.00
58843;BME280;44614;54.356;10.100;2023-02-13T03:36:01;103426.00;;;4.89;100.00
58843;BME280;44614;54.356;10.100;2023-02-13T03:39:08;103442.84;;;4.94;100.00
58843;BME280;44614;54.356;10.100;2023-02-13T03:41:59;103422.53;;;4.87;100.00
58843;BME280;44614;54.356;10.100;2023-02-13T03:44:43;103433.91;;;4.92;100.00
58843;BME280;44614;54.356;10.100;2023-02-13T03:47:13;103408.16;;;4.74;100.00
58843;BME280;44614;54.356;10.100;2023-02-13T03:49:48;103430.06;;;4.83;100.00
58843;BME280;44614;54.356;10.100;2023-02-13T03:52:31;103433.31;;;4.88;100.00
58843;BME280;44614;54.356;10.100;2023-02-13T03:55:07;103424.84;;;4.80;100.00
58843;BME280;44614;54.356;10.100;2023-02-13T03:57:55;103430.06;;;4.83;100.00
58843;BME280;44614;54.356;10.100;2023-02-13T04:00:45;103442.34;;;4.89;100.00
58843;BME280;44614;54.356;10.100;2023-02-13T04:03:16;103428.94;;;4.75;100.00
58843;BME280;44614;54.356;10.100;2023-02-13T04:06:01;103445.94;;;4.89;100.00
58843;BME280;44614;54.356;10.100;2023-02-13T04:08:28;103449.66;;;4.88;100.00
58843;BME280;44614;54.356;10.100;2023-02-13T04:11:02;103444.69;;;4.82;100.00
58843;BME280;44614;54.356;10.100;2023-02-13T04:13:42;103421.16;;;4.70;100.00
58843;BME280;44614;54.356;10.100;2023-02-13T04:16:15;103449.66;;;4.88;100.00
58843;BME280;44614;54.356;10.100;2023-02-13T04:18:42;103397.38;;;4.61;100.00
58843;BME280;44614;54.356;10.100;2023-02-13T04:21:09;103448.88;;;4.86;100.00
58843;BME280;44614;54.356;10.100;2023-02-13T04:23:34;103445.16;;;4.87;100.00
58843;BME280;44614;54.356;10.100;2023-02-13T04:26:03;103451.59;;;4.86;100.00
58843;BME280;44614;54.356;10.100;2023-02-13T04:28:30;103439.00;;;4.85;100.00
58843;BME280;44614;54.356;10.100;2023-02-13T04:30:55;103397.75;;;4.56;100.00
58843;BME280;44614;54.356;10.100;2023-02-13T04:33:21;103436.63;;;4.81;100.00
58843;BME280;44614;54.356;10.100;2023-02-13T04:35:47;103443.31;;;4.88;100.00
58843;BME280;44614;54.356;10.100;2023-02-13T04:38:12;103455.09;;;4.88;100.00
58843;BME280;44614;54.356;10.100;2023-02-13T04:40:37;103446.16;;;4.86;100.00
58843;BME280;44614;54.356;10.100;2023-02-13T04:43:03;103428.81;;;4.76;100.00
58843;BME280;44614;54.356;10.100;2023-02-13T04:45:28;103436.75;;;4.79;100.00
58843;BME280;44614;54.356;10.100;2023-02-13T04:47:56;103422.38;;;4.66;100.00
58843;BME280;44614;54.356;10.100;2023-02-13T04:50:22;103397.50;;;4.59;100.00
58843;BME280;44614;54.356;10.100;2023-02-13T04:52:52;103433.41;;;4.76;100.00
58843;BME280;44614;54.356;10.100;2023-02-13T04:55:18;103440.09;;;4.83;100.00
58843;BME280;44614;54.356;10.100;2023-02-13T04:57:44;103427.09;;;4.75;100.00
58843;BME280;44614;54.356;10.100;2023-02-13T05:00:09;103437.13;;;4.75;100.00
58843;BME280;44614;54.356;10.100;2023-02-13T05:02:35;103429.69;;;4.77;100.00
58843;BME280;44614;54.356;10.100;2023-02-13T05:05:01;103434.03;;;4.79;100.00
58843;BME280;44614;54.356;10.100;2023-02-13T05:07:26;103440.34;;;4.80;100.00
58843;BME280;44614;54.356;10.100;2023-02-13T05:09:51;103436.13;;;4.76;100.00
58843;BME280;44614;54.356;10.100;2023-02-13T05:12:17;103417.81;;;4.67;100.00
58843;BME280;44614;54.356;10.100;2023-02-13T05:14:42;103401.28;;;4.46;100.00
58843;BME280;44614;54.356;10.100;2023-02-13T05:17:07;103434.41;;;4.75;100.00
58843;BME280;44614;54.356;10.100;2023-02-13T05:19:33;103444.91;;;4.79;100.00
58843;BME280;44614;54.356;10.100;2023-02-13T05:21:58;103409.38;;;4.58;100.00
58843;BME280;44614;54.356;10.100;2023-02-13T05:24:42;103447.78;;;4.78;100.00
58843;BME280;44614;54.356;10.100;2023-02-13T05:27:07;103411.25;;;4.58;100.00
58843;BME280;44614;54.356;10.100;2023-02-13T05:29:32;103445.91;;;4.78;100.00
58843;BME280;44614;54.356;10.100;2023-02-13T05:31:58;103435.72;;;4.69;100.00
58843;BME280;44614;54.356;10.100;2023-02-13T05:34:27;103451.34;;;4.78;100.00
58843;BME280;44614;54.356;10.100;2023-02-13T05:36:53;103414.94;;;4.57;100.00
58843;BME280;44614;54.356;10.100;2023-02-13T05:39:18;103449.72;;;4.76;100.00
58843;BME280;44614;54.356;10.100;2023-02-13T05:41:45;103457.81;;;4.77;100.00
58843;BME280;44614;54.356;10.100;2023-02-13T05:44:11;103455.06;;;4.77;100.00
58843;BME280;44614;54.356;10.100;2023-02-13T05:46:38;103464.09;;;4.78;100.00
58843;BME280;44614;54.356;10.100;2023-02-13T05:49:04;103456.31;;;4.73;100.00
58843;BME280;44614;54.356;10.100;2023-02-13T05:51:29;103462.34;;;4.77;100.00
58843;BME280;44614;54.356;10.100;2023-02-13T05:53:55;103463.25;;;4.77;100.00
58843;BME280;44614;54.356;10.100;2023-02-13T05:56:20;103452.69;;;4.73;100.00
58843;BME280;44614;54.356;10.100;2023-02-13T05:58:45;103440.44;;;4.67;100.00
58843;BME280;44614;54.356;10.100;2023-02-13T06:01:11;103469.56;;;4.78;100.00
58843;BME280;44614;54.356;10.100;2023-02-13T06:03:37;103455.69;;;4.70;100.00
58843;BME280;44614;54.356;10.100;2023-02-13T06:06:04;103457.16;;;4.74;100.00
58843;BME280;44614;54.356;10.100;2023-02-13T06:08:29;103466.94;;;4.76;100.00
58843;BME280;44614;54.356;10.100;2023-02-13T06:10:55;103456.78;;;4.67;100.00
58843;BME280;44614;54.356;10.100;2023-02-13T06:13:20;103474.22;;;4.76;100.00
58843;BME280;44614;54.356;10.100;2023-02-13T06:15:45;103456.16;;;4.63;100.00
58843;BME280;44614;54.356;10.100;2023-02-13T06:18:11;103473.50;;;4.74;100.00
58843;BME280;44614;54.356;10.100;2023-02-13T06:20:36;103470.16;;;4.70;100.00
58843;BME280;44614;54.356;10.100;2023-02-13T06:23:02;103471.88;;;4.71;100.00
58843;BME280;44614;54.356;10.100;2023-02-13T06:25:28;103480.66;;;4.75;100.00
58843;BME280;44614;54.356;10.100;2023-02-13T06:27:53;103480.66;;;4.75;100.00
58843;BME280;44614;54.356;10.100;2023-02-13T06:30:19;103469.28;;;4.70;100.00
58843;BME280;44614;54.356;10.100;2023-02-13T06:32:45;103485.13;;;4.76;100.00
58843;BME280;44614;54.356;10.100;2023-02-13T06:35:11;103488.84;;;4.75;100.00
58843;BME280;44614;54.356;10.100;2023-02-13T06:37:36;103452.16;;;4.56;100.00
58843;BME280;44614;54.356;10.100;2023-02-13T06:40:04;103483.63;;;4.72;100.00
58843;BME280;44614;54.356;10.100;2023-02-13T06:42:30;103487.13;;;4.74;100.00
58843;BME280;44614;54.356;10.100;2023-02-13T06:44:55;103507.03;;;4.74;100.00
58843;BME280;44614;54.356;10.100;2023-02-13T06:47:20;103496.16;;;4.74;100.00
58843;BME280;44614;54.356;10.100;2023-02-13T06:49:46;103495.28;;;4.74;100.00
58843;BME280;44614;54.356;10.100;2023-02-13T06:52:11;103490.16;;;4.69;100.00
58843;BME280;44614;54.356;10.100;2023-02-13T06:54:36;103504.31;;;4.74;100.00
58843;BME280;44614;54.356;10.100;2023-02-13T06:57:02;103495.13;;;4.64;100.00
58843;BME280;44614;54.356;10.100;2023-02-13T06:59:27;103500.34;;;4.67;100.00
58843;BME280;44614;54.356;10.100;2023-02-13T07:01:52;103510.75;;;4.73;100.00
58843;BME280;44614;54.356;10.100;2023-02-13T07:04:17;103506.50;;;4.69;100.00
58843;BME280;44614;54.356;10.100;2023-02-13T07:06:43;103502.06;;;4.68;100.00
58843;BME280;44614;54.356;10.100;2023-02-13T07:09:08;103492.41;;;4.64;100.00
58843;BME280;44614;54.356;10.100;2023-02-13T07:11:34;103495.25;;;4.62;100.00
58843;BME280;44614;54.356;10.100;2023-02-13T07:14:01;103502.69;;;4.72;100.00
58843;BME280;44614;54.356;10.100;2023-02-13T07:16:26;103489.81;;;4.62;100.00
58843;BME280;44614;54.356;10.100;2023-02-13T07:18:52;103502.81;;;4.70;100.00
58843;BME280;44614;54.356;10.100;2023-02-13T07:21:17;103507.13;;;4.73;100.00
58843;BME280;44614;54.356;10.100;2023-02-13T07:23:42;103504.69;;;4.70;100.00
58843;BME280;44614;54.356;10.100;2023-02-13T07:26:08;103485.69;;;4.57;100.00
58843;BME280;44614;54.356;10.100;2023-02-13T07:28:35;103515.31;;;4.73;100.00
58843;BME280;44614;54.356;10.100;2023-02-13T07:31:03;103510.97;;;4.70;100.00
58843;BME280;44614;54.356;10.100;2023-02-13T07:33:30;103516.31;;;4.72;100.00
58843;BME280;44614;54.356;10.100;2023-02-13T07:35:55;103507.03;;;4.74;100.00
58843;BME280;44614;54.356;10.100;2023-02-13T07:38:20;103512.72;;;4.71;100.00
58843;BME280;44614;54.356;10.100;2023-02-13T07:40:45;103513.56;;;4.72;100.00
58843;BME280;44614;54.356;10.100;2023-02-13T07:43:12;103526.72;;;4.78;100.00
58843;BME280;44614;54.356;10.100;2023-02-13T07:45:37;103510.97;;;4.70;100.00
58843;BME280;44614;54.356;10.100;2023-02-13T07:48:02;103508.25;;;4.70;100.00
58843;BME280;44614;54.356;10.100;2023-02-13T07:50:28;103528.59;;;4.77;100.00
58843;BME280;44614;54.356;10.100;2023-02-13T07:52:55;103520.28;;;4.79;100.00
58843;BME280;44614;54.356;10.100;2023-02-13T07:55:21;103529.44;;;4.78;100.00
58843;BME280;44614;54.356;10.100;2023-02-13T07:57:47;103517.16;;;4.72;100.00
58843;BME280;44614;54.356;10.100;2023-02-13T08:00:12;103502.66;;;4.60;100.00
58843;BME280;44614;54.356;10.100;2023-02-13T08:02:38;103518.03;;;4.73;100.00
58843;BME280;44614;54.356;10.100;2023-02-13T08:05:04;103529.31;;;4.79;100.00
58843;BME280;44614;54.356;10.100;2023-02-13T08:07:29;103530.19;;;4.80;100.00
58843;BME280;44614;54.356;10.100;2023-02-13T08:09:55;103535.16;;;4.86;100.00
58843;BME280;44614;54.356;10.100;2023-02-13T08:12:40;103533.53;;;4.83;100.00
58843;BME280;44614;54.356;10.100;2023-02-13T08:15:06;103520.16;;;4.80;100.00
58843;BME280;44614;54.356;10.100;2023-02-13T08:17:32;103536.66;;;4.90;100.00
58843;BME280;44614;54.356;10.100;2023-02-13T08:19:57;103540.09;;;4.92;100.00
58843;BME280;44614;54.356;10.100;2023-02-13T08:22:22;103531.84;;;4.94;100.00
58843;BME280;44614;54.356;10.100;2023-02-13T08:24:47;103512.59;;;4.84;100.00
58843;BME280;44614;54.356;10.100;2023-02-13T08:27:13;103532.56;;;4.96;100.00
58843;BME280;44614;54.356;10.100;2023-02-13T08:29:39;103530.22;;;4.91;100.00
58843;BME280;44614;54.356;10.100;2023-02-13T08:32:04;103534.56;;;4.94;100.00
58843;BME280;44614;54.356;10.100;2023-02-13T08:34:30;103535.19;;;4.97;100.00
58843;BME280;44614;54.356;10.100;2023-02-13T08:36:55;103535.81;;;5.01;100.00
58843;BME280;44614;54.356;10.100;2023-02-13T08:39:20;103525.28;;;4.96;100.00
58843;BME280;44614;54.356;10.100;2023-02-13T08:41:46;103539.25;;;5.03;100.00
58843;BME280;44614;54.356;10.100;2023-02-13T08:44:11;103539.25;;;5.03;100.00
58843;BME280;44614;54.356;10.100;2023-02-13T08:46:36;103528.59;;;5.00;100.00
58843;BME280;44614;54.356;10.100;2023-02-13T08:49:02;103543.38;;;5.08;100.00
58843;BME280;44614;54.356;10.100;2023-02-13T08:51:27;103504.69;;;4.92;100.00
58843;BME280;44614;54.356;10.100;2023-02-13T08:53:53;103530.72;;;5.07;100.00
58843;BME280;44614;54.356;10.100;2023-02-13T08:56:18;103523.56;;;5.06;100.00
58843;BME280;44614;54.356;10.100;2023-02-13T08:58:47;103521.59;;;5.08;100.00
58843;BME280;44614;54.356;10.100;2023-02-13T09:01:12;103532.50;;;5.20;100.00
58843;BME280;44614;54.356;10.100;2023-02-13T09:03:38;103534.38;;;5.19;100.00
58843;BME280;44614;54.356;10.100;2023-02-13T09:06:03;103545.88;;;5.23;100.00
58843;BME280;44614;54.356;10.100;2023-02-13T09:08:29;103532.13;;;5.24;100.00
58843;BME280;44614;54.356;10.100;2023-02-13T09:11:00;103537.97;;;5.31;100.00
58843;BME280;44614;54.356;10.100;2023-02-13T09:13:29;103538.44;;;5.25;99.98
58843;BME280;44614;54.356;10.100;2023-02-13T09:15:59;103533.22;;;5.22;97.89
58843;BME280;44614;54.356;10.100;2023-02-13T09:18:24;103539.44;;;5.24;99.05
58843;BME280;44614;54.356;10.100;2023-02-13T09:20:56;103534.63;;;5.27;100.00
58843;BME280;44614;54.356;10.100;2023-02-13T09:23:21;103533.00;;;5.25;99.20
58843;BME280;44614;54.356;10.100;2023-02-13T09:25:46;103529.41;;;5.24;97.69
58843;BME280;44614;54.356;10.100;2023-02-13T09:28:12;103537.97;;;5.31;97.55
58843;BME280;44614;54.356;10.100;2023-02-13T09:30:37;103523.94;;;5.24;98.22
58843;BME280;44614;54.356;10.100;2023-02-13T09:33:02;103518.25;;;5.27;98.20
58843;BME280;44614;54.356;10.100;2023-02-13T09:35:28;103536.47;;;5.38;98.25
58843;BME280;44614;54.356;10.100;2023-02-13T09:37:53;103533.38;;;5.43;99.00
58843;BME280;44614;54.356;10.100;2023-02-13T09:43:14;103530.75;;;5.52;99.29
58843;BME280;44614;54.356;10.100;2023-02-13T09:45:42;103481.59;;;5.20;99.05
58843;BME280;44614;54.356;10.100;2023-02-13T09:48:16;103535.25;;;5.53;98.81
58843;BME280;44614;54.356;10.100;2023-02-13T09:50:42;103541.19;;;5.58;97.88
58843;BME280;44614;54.356;10.100;2023-02-13T09:53:18;103532.38;;;5.55;97.17
58843;BME280;44614;54.356;10.100;2023-02-13T09:58:45;103551.09;;;5.59;95.65
58843;BME280;44614;54.356;10.100;2023-02-13T10:01:33;103534.63;;;5.61;96.27
58843;BME280;44614;54.356;10.100;2023-02-13T10:04:20;103532.00;;;5.59;94.84
58843;BME280;44614;54.356;10.100;2023-02-13T10:06:56;103522.09;;;5.58;96.36
58843;BME280;44614;54.356;10.100;2023-02-13T10:10:25;103534.72;;;5.71;96.74
58843;BME280;44614;54.356;10.100;2023-02-13T10:13:22;103511.91;;;5.60;95.21
58843;BME280;44614;54.356;10.100;2023-02-13T10:16:14;103540.94;;;5.73;95.24
58843;BME280;44614;54.356;10.100;2023-02-13T10:18:53;103546.13;;;5.76;94.61
58843;BME280;44614;54.356;10.100;2023-02-13T10:21:25;103541.41;;;5.78;95.52
58843;BME280;44614;54.356;10.100;2023-02-13T10:26:51;103533.00;;;5.81;95.83
58843;BME280;44614;54.356;10.100;2023-02-13T10:32:16;103539.41;;;5.91;96.21
58843;BME280;44614;54.356;10.100;2023-02-13T10:34:45;103527.16;;;5.85;95.30
58843;BME280;44614;54.356;10.100;2023-02-13T10:37:19;103536.22;;;5.97;95.76
58843;BME280;44614;54.356;10.100;2023-02-13T10:39:48;103518.22;;;5.95;96.40
58843;BME280;44614;54.356;10.100;2023-02-13T10:42:20;103538.53;;;6.02;94.01
58843;BME280;44614;54.356;10.100;2023-02-13T10:45:02;103530.25;;;6.03;94.66
58843;BME280;44614;54.356;10.100;2023-02-13T10:50:47;103525.53;;;6.05;92.64
58843;BME280;44614;54.356;10.100;2023-02-13T10:56:00;103520.28;;;6.14;93.45
58843;BME280;44614;54.356;10.100;2023-02-13T10:58:38;103519.91;;;6.18;94.72
58843;BME280;44614;54.356;10.100;2023-02-13T11:04:12;103517.84;;;6.10;92.65
58843;BME280;44614;54.356;10.100;2023-02-13T11:07:03;103495.50;;;6.05;94.61
58843;BME280;44614;54.356;10.100;2023-02-13T11:09:33;103505.66;;;6.15;93.08
58843;BME280;44614;54.356;10.100;2023-02-13T11:12:29;103510.34;;;6.24;94.03
58843;BME280;44614;54.356;10.100;2023-02-13T11:15:03;103513.44;;;6.30;93.66
58843;BME280;44614;54.356;10.100;2023-02-13T11:17:30;103503.00;;;6.24;91.57
58843;BME280;44614;54.356;10.100;2023-02-13T11:20:03;103512.31;;;6.22;92.90
58843;BME280;44614;54.356;10.100;2023-02-13T11:22:38;103497.16;;;6.29;93.48
58843;BME280;44614;54.356;10.100;2023-02-13T11:25:26;103465.72;;;6.14;92.55
58843;BME280;44614;54.356;10.100;2023-02-13T11:28:07;103506.06;;;6.42;92.85
58843;BME280;44614;54.356;10.100;2023-02-13T11:30:37;103495.66;;;6.36;92.37
58843;BME280;44614;54.356;10.100;2023-02-13T11:33:21;103492.81;;;6.38;92.47
58843;BME280;44614;54.356;10.100;2023-02-13T11:35:47;103499.06;;;6.49;91.63
58843;BME280;44614;54.356;10.100;2023-02-13T11:40:44;103492.91;;;6.36;90.78
58843;BME280;44614;54.356;10.100;2023-02-13T11:46:01;103471.94;;;6.37;89.65
58843;BME280;44614;54.356;10.100;2023-02-13T11:48:27;103509.94;;;6.61;91.27
58843;BME280;44614;54.356;10.100;2023-02-13T11:50:53;103500.75;;;6.62;92.30
58843;BME280;44614;54.356;10.100;2023-02-13T11:53:29;103497.88;;;6.63;90.29
58843;BME280;44614;54.356;10.100;2023-02-13T11:58:33;103490.34;;;6.55;90.13
58843;BME280;44614;54.356;10.100;2023-02-13T12:04:03;103499.13;;;6.59;88.06
58843;BME280;44614;54.356;10.100;2023-02-13T12:06:29;103501.75;;;6.61;87.97
58843;BME280;44614;54.356;10.100;2023-02-13T12:08:54;103499.53;;;6.54;88.51
58843;BME280;44614;54.356;10.100;2023-02-13T12:13:51;103482.75;;;6.59;89.15
58843;BME280;44614;54.356;10.100;2023-02-13T12:19:11;103495.75;;;6.67;89.22
58843;BME280;44614;54.356;10.100;2023-02-13T12:26:56;103502.72;;;6.59;88.72
58843;BME280;44614;54.356;10.100;2023-02-13T12:32:20;103511.88;;;6.70;89.26
58843;BME280;44614;54.356;10.100;2023-02-13T12:48:51;103499.16;;;6.80;88.76
58843;BME280;44614;54.356;10.100;2023-02-13T12:51:47;103490.09;;;6.79;88.45
58843;BME280;44614;54.356;10.100;2023-02-13T12:54:33;103467.56;;;6.66;87.56
58843;BME280;44614;54.356;10.100;2023-02-13T12:57:16;103476.63;;;6.67;84.79
58843;BME280;44614;54.356;10.100;2023-02-13T13:05:25;103486.47;;;6.79;90.04
58843;BME280;44614;54.356;10.100;2023-02-13T13:10:34;103481.63;;;6.82;90.39
58843;BME280;44614;54.356;10.100;2023-02-13T13:13:06;103477.91;;;6.83;90.76
58843;BME280;44614;54.356;10.100;2023-02-13T13:18:17;103495.56;;;6.79;89.29
58843;BME280;44614;54.356;10.100;2023-02-13T13:20:53;103504.63;;;6.80;90.17
58843;BME280;44614;54.356;10.100;2023-02-13T13:23:34;103495.47;;;6.70;89.90
58843;BME280;44614;54.356;10.100;2023-02-13T13:28:49;103502.88;;;6.79;90.54
58843;BME280;44614;54.356;10.100;2023-02-13T13:31:15;103494.38;;;6.72;88.59
58843;BME280;44614;54.356;10.100;2023-02-13T13:33:43;103488.16;;;6.70;89.57
58843;BME280;44614;54.356;10.100;2023-02-13T13:36:19;103489.00;;;6.71;89.72
58843;BME280;44614;54.356;10.100;2023-02-13T13:38:56;103491.16;;;6.67;88.03
58843;BME280;44614;54.356;10.100;2023-02-13T13:41:55;103479.31;;;6.57;85.03
58843;BME280;44614;54.356;10.100;2023-02-13T13:49:54;103493.63;;;6.49;88.24
58843;BME280;44614;54.356;10.100;2023-02-13T13:52:24;103487.41;;;6.47;88.44
58843;BME280;44614;54.356;10.100;2023-02-13T13:54:51;103492.59;;;6.50;90.03
58843;BME280;44614;54.356;10.100;2023-02-13T13:57:19;103488.16;;;6.49;90.14
58843;BME280;44614;54.356;10.100;2023-02-13T14:07:24;103481.75;;;6.39;88.24
58843;BME280;44614;54.356;10.100;2023-02-13T14:09:49;103464.63;;;6.37;89.46
58843;BME280;44614;54.356;10.100;2023-02-13T14:14:50;103455.97;;;6.32;88.68
58843;BME280;44614;54.356;10.100;2023-02-13T14:23:13;103475.63;;;6.47;91.14
58843;BME280;44614;54.356;10.100;2023-02-13T14:25:41;103460.38;;;6.44;91.37
58843;BME280;44614;54.356;10.100;2023-02-13T14:28:22;103463.44;;;6.51;90.92
58843;BME280;44614;54.356;10.100;2023-02-13T14:30:49;103491.53;;;6.42;89.48
58843;BME280;44614;54.356;10.100;2023-02-13T14:33:26;103468.25;;;6.38;87.61
58843;BME280;44614;54.356;10.100;2023-02-13T14:36:07;103463.91;;;6.35;89.42
58843;BME280;44614;54.356;10.100;2023-02-13T14:38:34;103461.16;;;6.35;89.96
58843;BME280;44614;54.356;10.100;2023-02-13T14:41:00;103466.88;;;6.32;86.73
58843;BME280;44614;54.356;10.100;2023-02-13T14:43:33;103442.53;;;6.19;89.60
58843;BME280;44614;54.356;10.100;2023-02-13T14:46:38;103454.59;;;6.38;90.79
58843;BME280;44614;54.356;10.100;2023-02-13T14:49:23;103463.66;;;6.38;90.84
58843;BME280;44614;54.356;10.100;2023-02-13T14:51:52;103428.00;;;6.19;90.67
58843;BME280;44614;54.356;10.100;2023-02-13T14:54:28;103432.31;;;6.21;90.58
58843;BME280;44614;54.356;10.100;2023-02-13T14:57:05;103448.78;;;6.31;91.19
58843;BME280;44614;54.356;10.100;2023-02-13T14:59:34;103457.22;;;6.28;91.05
58843;BME280;44614;54.356;10.100;2023-02-13T15:02:12;103450.31;;;6.24;91.61
58843;BME280;44614;54.356;10.100;2023-02-13T15:04:42;103460.22;;;6.25;90.82